Time;durP1;ratioP1;P1;durP2;ratioP2;P2;SDS_P1;SDS_P2;PMS_P1;PMS_P2;Temp;Humidity;BMP_temperature;BMP_pressure;BME280_temperature;BME280_humidity;BME280_pressure;Samples;Min_cycle;Max_cycle;Signal;HPM_P1;HPM_P2
2023/01/03 00:02:16;;;;;;;7.72;2.03;;;27.50;99.90;;;;;;5046963;28;20197;-82
2023/01/03 00:04:49;;;;;;;6.25;2.15;;;27.40;99.90;;;;;;5028803;28;20958;-82
2023/01/03 00:07:32;;;;;;;7.22;2.05;;;27.50;99.90;;;;;;5026069;28;20204;-83
2023/01/03 00:10:03;;;;;;;9.30;2.28;;;27.60;99.90;;;;;;5024927;28;20290;-84
2023/01/03 00:12:34;;;;;;;6.75;2.33;;;27.60;99.90;;;;;;5025436;28;20207;-84
2023/01/03 00:15:05;;;;;;;7.60;2.15;;;27.70;99.90;;;;;;5026336;28;21533;-85
2023/01/03 00:17:36;;;;;;;10.30;2.03;;;27.70;99.90;;;;;;5025240;28;20900;-84
2023/01/03 00:20:10;;;;;;;9.63;2.08;;;27.70;99.90;;;;;;5026915;28;20891;-84
2023/01/03 00:22:41;;;;;;;7.50;1.92;;;27.50;99.90;;;;;;5027751;28;20197;-85
2023/01/03 00:25:12;;;;;;;12.88;2.67;;;27.50;99.90;;;;;;5027566;28;20197;-85
2023/01/03 00:27:43;;;;;;;8.27;2.20;;;27.40;99.90;;;;;;5027981;28;20914;-85
2023/01/03 00:30:14;;;;;;;7.20;1.73;;;27.20;99.90;;;;;;5026914;28;20682;-85
2023/01/03 00:32:45;;;;;;;10.95;2.35;;;27.20;99.90;;;;;;5026632;28;20223;-86
2023/01/03 00:35:17;;;;;;;11.52;2.05;;;27.30;99.90;;;;;;5029187;28;20207;-82
2023/01/03 00:37:48;;;;;;;8.52;1.98;;;27.40;99.90;;;;;;5026545;28;20236;-83
2023/01/03 00:40:19;;;;;;;8.73;2.08;;;27.50;99.90;;;;;;5028735;28;20204;-83
2023/01/03 00:45:37;;;;;;;7.93;1.88;;;27.50;99.90;;;;;;5034434;28;20207;-83
2023/01/03 00:48:08;;;;;;;7.50;1.77;;;27.50;99.90;;;;;;5030692;28;20569;-83
2023/01/03 00:50:43;;;;;;;8.88;2.10;;;27.40;99.90;;;;;;5024696;28;20211;-84
2023/01/03 00:53:14;;;;;;;8.35;1.80;;;27.50;99.90;;;;;;5024360;28;20204;-85
2023/01/03 00:55:45;;;;;;;8.00;2.13;;;27.50;99.90;;;;;;5025377;28;20200;-84
2023/01/03 00:58:15;;;;;;;7.53;2.00;;;27.60;99.90;;;;;;5025364;28;20611;-85
2023/01/03 01:00:46;;;;;;;8.20;2.20;;;27.50;99.90;;;;;;5025653;28;20798;-85
2023/01/03 01:03:17;;;;;;;8.57;1.77;;;27.40;99.90;;;;;;5047196;28;20197;-84
2023/01/03 01:05:50;;;;;;;5.90;2.05;;;27.50;99.90;;;;;;5026442;28;20204;-84
2023/01/03 01:08:21;;;;;;;9.00;1.95;;;27.50;99.90;;;;;;5023658;28;20205;-83
2023/01/03 01:11:02;;;;;;;7.25;2.05;;;27.60;99.90;;;;;;5024930;28;20197;-83
2023/01/03 01:13:35;;;;;;;7.38;2.05;;;27.70;99.90;;;;;;5025523;28;20212;-84
2023/01/03 01:16:07;;;;;;;8.52;2.05;;;27.60;99.90;;;;;;5036269;28;20773;-84
2023/01/03 01:18:38;;;;;;;13.88;2.08;;;27.60;99.90;;;;;;5037113;28;20232;-84
2023/01/03 01:21:13;;;;;;;7.38;1.95;;;27.50;99.90;;;;;;5027445;28;20706;-85
2023/01/03 01:23:44;;;;;;;10.20;2.30;;;27.60;99.90;;;;;;5027325;28;20204;-83
2023/01/03 01:26:18;;;;;;;9.60;2.10;;;27.50;99.90;;;;;;5027474;28;20192;-85
2023/01/03 01:28:50;;;;;;;11.10;2.53;;;27.60;99.90;;;;;;5024965;28;20531;-84
2023/01/03 01:31:22;;;;;;;7.88;1.98;;;27.70;99.90;;;;;;5024855;28;20200;-84
2023/01/03 01:33:54;;;;;;;8.55;2.17;;;27.80;99.90;;;;;;5023507;28;20341;-84
2023/01/03 01:36:28;;;;;;;10.40;2.40;;;27.90;99.90;;;;;;5024777;28;20699;-85
2023/01/03 01:39:04;;;;;;;10.30;2.05;;;27.90;99.90;;;;;;5023685;28;20201;-84
2023/01/03 01:44:46;;;;;;;8.77;2.20;;;27.90;99.90;;;;;;5029457;28;20207;-84
2023/01/03 01:47:19;;;;;;;9.18;2.17;;;27.80;99.90;;;;;;5024847;28;20785;-85
2023/01/03 01:49:53;;;;;;;7.05;2.03;;;27.80;99.90;;;;;;5023983;28;20200;-85
2023/01/03 01:52:28;;;;;;;12.25;2.30;;;27.80;99.90;;;;;;5030799;28;20307;-85
2023/01/03 01:55:00;;;;;;;6.82;1.88;;;27.80;99.90;;;;;;5029403;28;20200;-86
2023/01/03 01:57:35;;;;;;;9.70;2.00;;;27.80;99.90;;;;;;5035431;28;20228;-85
2023/01/03 02:00:07;;;;;;;9.40;2.13;;;27.90;99.90;;;;;;5029901;28;20194;-85
2023/01/03 02:02:38;;;;;;;8.75;2.20;;;27.90;99.90;;;;;;5040906;28;20714;-84
2023/01/03 02:05:10;;;;;;;6.75;2.00;;;27.90;99.90;;;;;;5027818;28;20197;-84
2023/01/03 02:07:43;;;;;;;8.27;1.90;;;27.90;99.90;;;;;;5023765;28;21846;-85
2023/01/03 02:10:15;;;;;;;8.38;1.65;;;28.00;99.90;;;;;;5025093;28;20945;-84
2023/01/03 02:13:09;;;;;;;11.07;2.28;;;27.80;99.90;;;;;;5024648;28;20287;-84
2023/01/03 02:16:04;;;;;;;8.65;2.03;;;28.00;99.90;;;;;;5029013;28;20216;-84
2023/01/03 02:18:48;;;;;;;7.55;2.20;;;28.10;99.90;;;;;;5029473;28;20240;-84
2023/01/03 02:21:49;;;;;;;9.98;1.85;;;28.00;99.90;;;;;;5031634;28;20239;-84
2023/01/03 02:24:53;;;;;;;5.20;1.45;;;28.10;99.90;;;;;;5002596;28;20227;-84
2023/01/03 02:27:54;;;;;;;8.60;1.90;;;28.10;99.90;;;;;;5028224;28;20251;-83
2023/01/03 02:30:36;;;;;;;6.38;1.90;;;28.30;99.90;;;;;;5014524;28;20208;-83
2023/01/03 02:33:20;;;;;;;5.63;1.80;;;28.40;99.90;;;;;;5026166;28;20196;-84
2023/01/03 02:36:00;;;;;;;8.77;2.08;;;28.40;99.90;;;;;;5026719;28;20208;-84
2023/01/03 02:38:39;;;;;;;6.28;1.80;;;28.50;99.90;;;;;;5029038;28;21695;-85
2023/01/03 02:41:17;;;;;;;7.15;1.80;;;28.50;99.90;;;;;;5027631;28;20201;-84
2023/01/03 02:43:55;;;;;;;7.65;2.10;;;28.40;99.90;;;;;;5028193;28;20269;-84
2023/01/03 02:46:32;;;;;;;8.95;1.63;;;28.40;99.90;;;;;;5031727;28;20205;-84
2023/01/03 02:49:07;;;;;;;7.70;1.98;;;28.40;99.90;;;;;;5026242;28;20738;-84
2023/01/03 02:51:43;;;;;;;6.28;1.85;;;28.30;99.90;;;;;;5026291;28;20207;-84
2023/01/03 02:54:19;;;;;;;6.40;1.58;;;28.40;99.90;;;;;;5026549;28;21098;-83
2023/01/03 02:56:55;;;;;;;7.38;1.85;;;28.50;99.90;;;;;;5027268;28;20693;-84
2023/01/03 02:59:31;;;;;;;6.15;1.80;;;28.50;99.90;;;;;;5027766;28;20203;-84
2023/01/03 03:02:06;;;;;;;6.95;1.63;;;28.30;99.90;;;;;;5043453;28;20774;-84
2023/01/03 03:04:39;;;;;;;6.97;1.75;;;28.30;99.90;;;;;;5032654;28;20214;-86
2023/01/03 03:07:16;;;;;;;7.70;1.90;;;28.40;99.90;;;;;;5028079;28;21802;-85
2023/01/03 03:15:26;;;;;;;4.82;1.60;;;28.60;99.90;;;;;;5029120;28;20218;-85
2023/01/03 03:18:03;;;;;;;7.60;1.73;;;28.50;99.90;;;;;;5028236;28;23423;-87
2023/01/03 03:26:16;;;;;;;7.47;1.90;;;28.70;99.90;;;;;;5028209;28;20191;-84
2023/01/03 03:28:49;;;;;;;6.25;1.70;;;28.70;99.90;;;;;;5030367;28;20528;-85
2023/01/03 03:31:23;;;;;;;7.68;1.95;;;28.70;99.90;;;;;;5028675;28;20784;-84
2023/01/03 03:33:59;;;;;;;7.18;1.92;;;28.80;99.90;;;;;;5029454;28;20667;-85
2023/01/03 03:36:48;;;;;;;7.28;1.67;;;28.70;99.90;;;;;;5028215;28;20262;-86
2023/01/03 03:45:14;;;;;;;7.28;1.83;;;28.70;99.90;;;;;;5053618;28;20286;-85
2023/01/03 03:47:51;;;;;;;7.78;1.70;;;28.60;99.90;;;;;;5059546;28;20192;-83
2023/01/03 03:50:27;;;;;;;7.13;1.95;;;28.70;99.90;;;;;;5057546;28;20200;-84
2023/01/03 03:53:02;;;;;;;8.27;1.70;;;28.80;99.90;;;;;;5049714;28;20232;-85
2023/01/03 03:55:36;;;;;;;7.10;1.75;;;28.70;99.90;;;;;;5052814;28;20275;-85
2023/01/03 03:58:10;;;;;;;7.03;1.80;;;28.70;99.90;;;;;;5049095;28;20224;-84
2023/01/03 04:00:43;;;;;;;8.02;2.08;;;28.70;99.90;;;;;;5034530;28;20200;-84
2023/01/03 04:03:15;;;;;;;5.32;1.70;;;28.70;99.90;;;;;;5042280;28;20790;-85
2023/01/03 04:05:51;;;;;;;7.88;2.20;;;28.60;99.90;;;;;;5029566;28;20201;-85
2023/01/03 04:08:22;;;;;;;11.88;2.00;;;28.60;99.90;;;;;;5027682;28;20567;-85
2023/01/03 04:11:04;;;;;;;11.00;2.05;;;28.70;99.90;;;;;;5028786;28;20200;-85
2023/01/03 04:13:35;;;;;;;6.68;1.77;;;28.60;99.90;;;;;;5030086;28;20204;-84
2023/01/03 04:16:07;;;;;;;7.38;1.98;;;28.60;99.90;;;;;;5027369;28;20388;-85
2023/01/03 04:18:43;;;;;;;5.68;1.80;;;28.60;99.90;;;;;;5033396;28;20717;-84
2023/01/03 04:21:18;;;;;;;9.70;1.98;;;28.70;99.90;;;;;;5019355;28;21825;-85
2023/01/03 04:23:49;;;;;;;7.75;1.77;;;28.80;99.90;;;;;;5032986;28;20660;-85
2023/01/03 04:26:24;;;;;;;9.48;1.67;;;28.70;99.90;;;;;;5031781;28;20200;-85
2023/01/03 04:28:55;;;;;;;7.32;2.03;;;28.60;99.90;;;;;;5031906;28;20200;-86
2023/01/03 04:31:26;;;;;;;7.30;1.70;;;28.50;99.90;;;;;;5032550;28;20210;-85
2023/01/03 04:33:56;;;;;;;6.43;1.63;;;28.30;99.90;;;;;;5035930;28;20197;-85
2023/01/03 04:36:30;;;;;;;8.10;1.77;;;28.10;99.90;;;;;;5030397;28;20201;-83
2023/01/03 04:39:01;;;;;;;5.25;1.60;;;28.00;99.90;;;;;;5028246;28;20289;-83
2023/01/03 04:41:32;;;;;;;7.50;1.75;;;27.80;99.90;;;;;;5032099;28;20202;-83
2023/01/03 04:44:01;;;;;;;8.30;1.88;;;27.60;99.90;;;;;;5032159;28;20197;-83
2023/01/03 04:46:33;;;;;;;9.05;1.85;;;27.50;99.90;;;;;;5050083;28;20537;-83
2023/01/03 04:49:05;;;;;;;7.25;2.10;;;27.40;99.90;;;;;;5053831;28;20201;-83
2023/01/03 04:51:38;;;;;;;9.80;1.92;;;27.40;99.90;;;;;;5069610;28;20559;-84
2023/01/03 04:54:09;;;;;;;9.00;1.88;;;27.50;99.90;;;;;;5053822;28;20205;-84
2023/01/03 04:56:40;;;;;;;6.63;1.77;;;27.70;99.90;;;;;;5053529;28;20205;-84
2023/01/03 04:59:11;;;;;;;5.03;1.77;;;27.70;99.90;;;;;;5054799;28;20232;-83
2023/01/03 05:01:50;;;;;;;7.78;1.73;;;28.10;99.90;;;;;;5042393;28;20303;-84
2023/01/03 05:04:21;;;;;;;9.43;1.80;;;28.40;99.90;;;;;;5028711;28;20197;-83
2023/01/03 05:06:55;;;;;;;9.10;1.88;;;28.70;99.90;;;;;;5029312;28;20663;-85
2023/01/03 05:09:27;;;;;;;6.78;1.73;;;29.10;99.90;;;;;;5030520;28;20205;-85
2023/01/03 05:11:59;;;;;;;10.27;1.98;;;29.30;99.90;;;;;;5032538;28;20331;-86
2023/01/03 05:14:35;;;;;;;7.78;1.63;;;29.10;99.90;;;;;;5031140;28;20278;-84
2023/01/03 05:17:10;;;;;;;10.10;2.35;;;28.80;99.90;;;;;;5029066;28;20224;-85
2023/01/03 05:28:00;;;;;;;9.20;1.98;;;29.90;99.90;;;;;;5030475;28;20203;-83
2023/01/03 05:30:31;;;;;;;6.20;1.35;;;30.00;99.90;;;;;;5031558;28;20262;-84
2023/01/03 05:33:02;;;;;;;7.18;1.70;;;29.90;99.90;;;;;;5030014;28;20207;-84
2023/01/03 05:35:33;;;;;;;7.45;1.80;;;30.00;99.90;;;;;;5031340;28;20200;-85
2023/01/03 05:38:05;;;;;;;5.57;1.75;;;29.70;99.90;;;;;;5028962;28;20216;-85
2023/01/03 05:40:36;;;;;;;7.75;2.08;;;29.60;99.90;;;;;;5034202;28;20288;-84
2023/01/03 05:43:08;;;;;;;6.75;1.73;;;29.30;99.90;;;;;;5029972;28;20200;-85
2023/01/03 05:45:39;;;;;;;7.22;1.80;;;29.00;99.90;;;;;;5030358;28;20201;-83
2023/01/03 05:48:10;;;;;;;6.95;1.85;;;28.70;99.90;;;;;;5029265;28;20208;-84
2023/01/03 05:50:41;;;;;;;8.93;1.88;;;28.40;99.90;;;;;;5031727;28;20193;-83
2023/01/03 05:53:14;;;;;;;5.47;1.58;;;28.20;99.90;;;;;;5028905;28;20193;-84
2023/01/03 05:55:48;;;;;;;6.22;1.75;;;27.90;99.90;;;;;;5029985;28;20232;-83
2023/01/03 05:58:19;;;;;;;10.20;2.13;;;27.70;99.90;;;;;;5029394;28;20239;-84
2023/01/03 06:00:50;;;;;;;8.73;1.80;;;27.80;99.90;;;;;;5042227;28;20304;-82
2023/01/03 06:03:21;;;;;;;8.02;1.77;;;27.80;99.90;;;;;;5026879;28;20900;-83
2023/01/03 06:05:52;;;;;;;5.72;1.52;;;27.80;99.90;;;;;;5024269;28;20193;-83
2023/01/03 06:08:25;;;;;;;5.22;1.60;;;28.20;99.90;;;;;;5025767;28;20237;-83
2023/01/03 06:10:56;;;;;;;6.80;1.38;;;28.60;99.90;;;;;;5025152;28;20841;-83
2023/01/03 06:13:27;;;;;;;8.07;1.63;;;28.70;99.90;;;;;;5024155;28;20200;-83
2023/01/03 06:18:46;;;;;;;6.07;1.48;;;28.50;99.90;;;;;;5024501;28;20545;-84
2023/01/03 06:21:17;;;;;;;5.43;1.48;;;28.40;99.90;;;;;;5038667;28;20731;-84
2023/01/03 06:23:50;;;;;;;6.05;1.38;;;28.50;99.90;;;;;;5035943;28;20197;-83
2023/01/03 06:26:23;;;;;;;6.43;1.67;;;28.20;99.90;;;;;;5026167;28;20196;-84
2023/01/03 06:28:54;;;;;;;5.72;1.63;;;28.00;99.90;;;;;;5025815;28;20287;-83
2023/01/03 06:31:24;;;;;;;6.82;1.42;;;27.80;99.90;;;;;;5028282;28;20201;-84
2023/01/03 06:34:00;;;;;;;7.97;1.80;;;27.60;99.90;;;;;;5026963;28;20200;-83
2023/01/03 06:36:33;;;;;;;6.80;1.83;;;27.40;99.90;;;;;;5026804;28;20906;-84
2023/01/03 06:39:06;;;;;;;7.72;1.80;;;27.20;99.90;;;;;;5030840;28;20333;-83
2023/01/03 06:41:36;;;;;;;5.63;1.65;;;27.10;99.90;;;;;;5029220;28;20211;-82
2023/01/03 06:44:09;;;;;;;7.63;1.73;;;27.00;99.90;;;;;;5033967;28;20287;-83
2023/01/03 06:55:06;;;;;;;9.57;1.88;;;27.50;99.90;;;;;;5026005;28;20294;-83
2023/01/03 06:57:37;;;;;;;8.25;1.80;;;27.90;99.90;;;;;;5025568;28;20581;-83
2023/01/03 07:00:14;;;;;;;7.47;1.90;;;28.40;99.90;;;;;;5039789;28;20232;-85
2023/01/03 07:02:45;;;;;;;8.00;1.80;;;29.20;99.90;;;;;;5057787;28;20220;-85
2023/01/03 07:05:16;;;;;;;8.90;1.98;;;29.90;99.90;;;;;;5031028;28;20247;-84
2023/01/03 07:07:47;;;;;;;7.53;2.03;;;30.00;99.90;;;;;;5036501;28;20203;-85
2023/01/03 07:10:20;;;;;;;6.68;1.92;;;30.10;99.90;;;;;;5045717;28;20220;-84
2023/01/03 07:15:37;;;;;;;6.78;1.73;;;30.30;99.90;;;;;;5018956;28;20230;-85
2023/01/03 07:18:08;;;;;;;6.63;1.58;;;30.70;99.90;;;;;;5036027;28;20281;-84
2023/01/03 07:20:45;;;;;;;7.85;1.63;;;30.80;99.90;;;;;;5036677;28;20205;-84
2023/01/03 07:23:16;;;;;;;5.88;1.60;;;30.50;99.90;;;;;;5038357;28;20204;-85
2023/01/03 07:25:50;;;;;;;3.92;1.40;;;30.40;99.90;;;;;;5039864;28;20207;-84
2023/01/03 07:28:21;;;;;;;5.45;1.38;;;30.40;99.90;;;;;;5034161;28;20266;-83
2023/01/03 07:30:52;;;;;;;9.45;1.63;;;30.40;99.90;;;;;;5040284;28;20192;-84
2023/01/03 07:33:23;;;;;;;7.78;1.58;;;30.50;99.90;;;;;;5036856;28;20192;-84
2023/01/03 07:35:55;;;;;;;7.68;1.90;;;30.40;99.90;;;;;;5036473;28;20205;-85
2023/01/03 07:38:26;;;;;;;7.68;1.70;;;30.30;99.90;;;;;;5034824;28;20582;-84
2023/01/03 07:41:03;;;;;;;5.55;1.48;;;29.60;99.90;;;;;;5019852;28;20189;-84
2023/01/03 07:43:39;;;;;;;5.47;1.55;;;29.10;99.90;;;;;;5031348;28;20258;-84
2023/01/03 07:46:11;;;;;;;8.57;1.70;;;28.70;99.90;;;;;;5029714;28;20203;-82
2023/01/03 07:48:43;;;;;;;6.57;1.88;;;28.30;99.90;;;;;;5026218;28;20204;-82
2023/01/03 07:51:15;;;;;;;8.10;1.80;;;28.00;99.90;;;;;;5028401;28;20287;-84
2023/01/03 07:53:46;;;;;;;7.20;1.80;;;27.80;99.90;;;;;;5029726;28;20574;-84
2023/01/03 07:56:20;;;;;;;11.93;2.00;;;27.60;99.90;;;;;;5029705;28;20216;-84
2023/01/03 07:58:51;;;;;;;10.52;1.83;;;27.30;99.90;;;;;;5035918;28;20274;-84
2023/01/03 08:01:24;;;;;;;7.32;1.75;;;27.10;99.90;;;;;;5038266;28;20196;-84
2023/01/03 08:03:54;;;;;;;6.30;1.80;;;26.90;99.90;;;;;;5027542;28;20208;-84
2023/01/03 08:06:28;;;;;;;10.77;1.90;;;26.70;99.90;;;;;;5027584;28;20691;-84
2023/01/03 08:14:34;;;;;;;9.63;2.67;;;26.40;99.90;;;;;;5027724;28;20212;-84
2023/01/03 08:17:05;;;;;;;10.70;4.45;;;26.30;99.90;;;;;;5025686;28;20205;-83
2023/01/03 08:19:35;;;;;;;9.77;2.45;;;26.40;99.90;;;;;;5027475;28;20228;-84
2023/01/03 08:22:08;;;;;;;7.18;1.85;;;26.30;99.90;;;;;;5026718;28;20210;-83
2023/01/03 08:24:39;;;;;;;9.27;1.95;;;26.20;99.90;;;;;;5029657;28;20200;-84
2023/01/03 08:27:12;;;;;;;8.18;2.15;;;26.20;99.90;;;;;;5027988;28;21032;-85
2023/01/03 08:29:42;;;;;;;5.97;2.00;;;26.10;99.90;;;;;;5031382;28;20199;-84
2023/01/03 08:32:13;;;;;;;8.60;1.63;;;26.10;99.90;;;;;;5027919;28;20620;-85
2023/01/03 08:34:47;;;;;;;11.45;2.15;;;26.00;99.90;;;;;;5028349;28;20201;-83
2023/01/03 08:37:19;;;;;;;7.65;2.03;;;26.00;99.90;;;;;;5026351;28;20346;-83
2023/01/03 08:39:55;;;;;;;7.72;2.15;;;26.00;99.90;;;;;;5028564;28;20224;-83
2023/01/03 08:42:28;;;;;;;8.88;2.10;;;26.00;99.90;;;;;;5026764;28;20207;-84
2023/01/03 08:55:00;;;;;;;9.80;1.98;;;25.90;99.90;;;;;;5015628;28;20264;-83
2023/01/03 09:01:27;;;;;;;8.80;2.30;;;25.80;99.90;;;;;;5036040;28;20207;-83
2023/01/03 09:07:02;;;;;;;10.82;2.50;;;25.80;99.90;;;;;;5020682;28;20546;-82
2023/01/03 09:09:42;;;;;;;10.50;2.25;;;25.70;99.90;;;;;;5025428;28;20212;-83
2023/01/03 09:15:18;;;;;;;10.13;2.42;;;25.70;99.90;;;;;;4980136;28;20234;-84
2023/01/03 09:18:03;;;;;;;8.68;2.22;;;25.60;99.90;;;;;;5025921;28;20311;-84
2023/01/03 09:20:47;;;;;;;8.80;2.10;;;25.50;99.90;;;;;;5026825;28;20710;-84
2023/01/03 09:23:25;;;;;;;11.73;2.50;;;25.50;99.90;;;;;;5026081;28;20697;-84
2023/01/03 09:26:00;;;;;;;11.50;2.97;;;25.50;99.90;;;;;;5025780;28;20200;-84
2023/01/03 09:28:32;;;;;;;11.98;2.55;;;25.40;99.90;;;;;;5023789;28;20192;-84
2023/01/03 09:31:06;;;;;;;9.38;2.10;;;25.40;99.90;;;;;;5025016;28;20282;-84
2023/01/03 09:36:41;;;;;;;12.40;2.83;;;25.40;99.90;;;;;;5026365;28;20203;-84
2023/01/03 09:39:25;;;;;;;10.80;2.58;;;25.40;99.90;;;;;;5028884;28;20254;-84
2023/01/03 09:44:40;;;;;;;10.88;2.20;;;25.50;99.90;;;;;;5025247;28;20189;-84
2023/01/03 09:47:51;;;;;;;10.68;2.58;;;25.50;99.90;;;;;;5024988;28;20212;-84
2023/01/03 09:50:39;;;;;;;10.77;2.60;;;25.50;99.90;;;;;;5028559;28;20193;-85
2023/01/03 10:08:56;;;;;;;9.35;2.58;;;25.50;99.90;;;;;;5023503;28;20258;-83
2023/01/03 10:12:20;;;;;;;9.77;2.38;;;25.50;99.90;;;;;;5030223;28;20204;-83
2023/01/03 10:15:22;;;;;;;8.45;2.10;;;25.50;99.90;;;;;;5024887;28;21291;-83
2023/01/03 10:22:02;;;;;;;8.57;2.47;;;25.40;99.90;;;;;;5025804;28;20378;-84
2023/01/03 10:25:04;;;;;;;12.43;2.80;;;25.30;99.90;;;;;;5047761;28;20228;-84
2023/01/03 10:33:56;;;;;;;14.15;2.70;;;25.20;99.90;;;;;;5045240;28;20208;-88
2023/01/03 10:36:58;;;;;;;14.50;3.30;;;24.80;99.90;;;;;;5049314;28;20227;-84
2023/01/03 10:39:47;;;;;;;17.70;3.25;;;24.30;99.90;;;;;;5049443;28;20223;-84
2023/01/03 10:42:20;;;;;;;17.92;3.00;;;24.20;99.90;;;;;;5051260;28;20251;-84
2023/01/03 10:45:09;;;;;;;13.82;3.03;;;24.10;99.90;;;;;;5036674;28;20705;-84
2023/01/03 10:47:47;;;;;;;15.60;2.97;;;23.90;99.90;;;;;;5029894;28;20205;-84
2023/01/03 10:50:27;;;;;;;15.80;3.22;;;23.80;99.90;;;;;;5026535;28;20258;-84
2023/01/03 10:53:08;;;;;;;13.45;3.03;;;23.80;99.90;;;;;;5025690;28;20204;-85
2023/01/03 10:55:54;;;;;;;17.02;3.35;;;23.80;99.90;;;;;;5024715;28;20205;-84
2023/01/03 10:58:27;;;;;;;16.52;3.15;;;23.60;99.90;;;;;;5044071;28;20196;-84
2023/01/03 11:01:25;;;;;;;11.35;2.70;;;23.50;99.90;;;;;;5026527;28;20231;-83
2023/01/03 11:04:17;;;;;;;15.82;3.35;;;23.60;99.90;;;;;;5007364;28;20227;-83
2023/01/03 11:07:17;;;;;;;12.68;3.05;;;23.60;99.90;;;;;;5024380;28;20211;-83
2023/01/03 11:09:52;;;;;;;12.75;2.80;;;23.60;99.90;;;;;;5026833;28;20245;-83
2023/01/03 11:12:29;;;;;;;16.48;3.13;;;23.60;99.90;;;;;;5023944;28;20283;-83
2023/01/03 11:15:02;;;;;;;12.27;3.03;;;23.60;99.90;;;;;;5029202;28;20239;-83
2023/01/03 11:17:34;;;;;;;12.27;2.55;;;23.60;99.90;;;;;;5027978;28;20228;-83
2023/01/03 11:20:18;;;;;;;11.35;2.60;;;23.40;99.90;;;;;;5025562;28;20228;-84
2023/01/03 11:22:57;;;;;;;13.73;2.92;;;23.40;99.90;;;;;;5025973;28;20770;-83
2023/01/03 11:25:42;;;;;;;9.75;2.85;;;23.40;99.90;;;;;;5026607;28;22305;-84
2023/01/03 11:28:43;;;;;;;10.80;2.70;;;23.50;99.90;;;;;;5034136;28;20200;-85
2023/01/03 11:31:22;;;;;;;12.73;2.38;;;23.60;99.90;;;;;;5046117;28;20197;-86
2023/01/03 11:34:04;;;;;;;9.32;2.42;;;23.70;99.90;;;;;;5028611;28;20207;-86
2023/01/03 11:36:50;;;;;;;11.93;2.50;;;23.70;99.90;;;;;;5028119;28;20269;-83
2023/01/03 11:39:37;;;;;;;11.25;2.95;;;23.80;99.90;;;;;;5033413;28;20287;-84
2023/01/03 11:42:29;;;;;;;8.60;2.33;;;23.80;99.90;;;;;;5030777;28;20215;-83
2023/01/03 11:45:36;;;;;;;12.77;2.45;;;23.80;99.90;;;;;;5045440;28;20224;-84
2023/01/03 11:48:39;;;;;;;10.60;2.63;;;23.90;99.90;;;;;;4973145;28;20606;-83
2023/01/03 11:51:15;;;;;;;10.70;2.80;;;23.90;99.90;;;;;;4969356;28;20339;-83
2023/01/03 11:54:06;;;;;;;14.02;2.75;;;23.90;99.90;;;;;;5038918;28;20216;-84
2023/01/03 11:56:43;;;;;;;12.35;2.45;;;23.90;99.90;;;;;;5052490;28;20203;-84
2023/01/03 11:59:40;;;;;;;11.38;3.03;;;23.90;99.90;;;;;;5057302;28;20232;-84
2023/01/03 12:02:37;;;;;;;11.23;2.25;;;23.90;99.90;;;;;;5051227;28;20197;-84
2023/01/03 12:05:30;;;;;;;10.20;2.25;;;23.90;99.90;;;;;;5051254;28;20291;-84
2023/01/03 12:08:10;;;;;;;8.18;1.92;;;23.90;99.90;;;;;;5052727;28;20199;-84
2023/01/03 12:10:48;;;;;;;7.68;1.95;;;24.00;99.90;;;;;;5031068;28;20280;-84
2023/01/03 12:13:28;;;;;;;10.82;2.38;;;24.00;99.90;;;;;;5050301;28;20203;-84
2023/01/03 12:16:04;;;;;;;15.15;2.80;;;24.10;99.90;;;;;;5052279;28;20610;-84
2023/01/03 12:18:46;;;;;;;10.00;2.47;;;24.10;99.90;;;;;;5052575;28;20315;-84
2023/01/03 12:21:23;;;;;;;8.45;2.33;;;24.10;99.90;;;;;;5051657;28;20620;-85
2023/01/03 12:24:00;;;;;;;10.23;2.90;;;24.10;99.90;;;;;;5051394;28;20571;-84
2023/01/03 12:26:32;;;;;;;12.15;2.67;;;24.10;99.90;;;;;;5051945;28;20200;-84
2023/01/03 12:29:13;;;;;;;8.85;2.30;;;24.10;99.90;;;;;;5063137;28;20264;-84
2023/01/03 12:31:49;;;;;;;13.90;2.63;;;24.10;99.90;;;;;;5057619;28;20552;-85
2023/01/03 12:34:27;;;;;;;10.50;2.70;;;24.10;99.90;;;;;;5053591;28;20203;-85
2023/01/03 12:37:10;;;;;;;12.70;3.20;;;24.10;99.90;;;;;;5057661;28;20811;-85
2023/01/03 12:39:53;;;;;;;12.27;2.67;;;24.10;99.90;;;;;;5055287;28;20192;-84
2023/01/03 12:42:33;;;;;;;9.40;2.45;;;24.10;99.90;;;;;;5053663;28;20203;-85
2023/01/03 12:45:27;;;;;;;10.65;2.40;;;24.10;99.90;;;;;;5054890;28;20196;-84
2023/01/03 12:48:02;;;;;;;8.82;2.10;;;24.10;99.90;;;;;;5036273;28;20221;-85
2023/01/03 12:50:39;;;;;;;13.30;2.50;;;24.20;99.90;;;;;;5047633;28;20305;-84
2023/01/03 12:53:18;;;;;;;13.10;2.33;;;24.20;99.90;;;;;;5035490;28;20255;-83
2023/01/03 12:56:03;;;;;;;12.70;2.95;;;24.20;99.90;;;;;;5061175;28;20192;-84
2023/01/03 12:58:44;;;;;;;11.35;2.55;;;24.20;99.90;;;;;;5065969;28;20204;-84
2023/01/03 13:01:20;;;;;;;11.85;2.70;;;24.20;99.90;;;;;;5050659;28;20331;-84
2023/01/03 13:03:55;;;;;;;10.65;2.17;;;24.20;99.90;;;;;;5052340;28;20279;-84
2023/01/03 13:06:34;;;;;;;13.18;2.47;;;24.20;99.90;;;;;;5050766;28;20203;-84
2023/01/03 13:09:08;;;;;;;10.90;2.30;;;24.20;99.90;;;;;;5050036;28;20279;-84
2023/01/03 13:11:43;;;;;;;11.15;2.70;;;24.10;99.90;;;;;;5051147;28;20613;-83
2023/01/03 13:14:21;;;;;;;11.35;2.67;;;24.20;99.90;;;;;;5046620;28;20635;-83
2023/01/03 13:16:55;;;;;;;14.70;2.47;;;24.20;99.90;;;;;;5051816;28;20192;-84
2023/01/03 13:20:01;;;;;;;10.45;2.28;;;24.20;99.90;;;;;;5051528;28;20227;-84
2023/01/03 13:22:57;;;;;;;12.82;2.72;;;24.10;99.90;;;;;;5050182;28;20290;-84
2023/01/03 13:25:40;;;;;;;10.30;2.28;;;24.10;99.90;;;;;;5051644;28;20200;-84
2023/01/03 13:28:33;;;;;;;14.45;2.55;;;24.10;99.90;;;;;;5034721;28;20288;-84
2023/01/03 13:31:38;;;;;;;12.98;2.78;;;24.10;99.90;;;;;;5035327;28;20197;-84
2023/01/03 13:34:35;;;;;;;12.40;2.85;;;24.10;99.90;;;;;;5050867;28;20299;-83
2023/01/03 13:37:16;;;;;;;13.02;2.80;;;24.10;99.90;;;;;;5049753;28;20231;-83
2023/01/03 13:40:06;;;;;;;10.88;2.70;;;24.10;99.90;;;;;;5049667;28;20247;-83
2023/01/03 13:42:40;;;;;;;14.40;3.10;;;24.10;99.90;;;;;;5049281;28;20192;-84
2023/01/03 13:45:57;;;;;;;13.82;2.67;;;24.10;99.90;;;;;;5046511;28;20207;-84
2023/01/03 13:48:52;;;;;;;13.57;2.50;;;23.90;99.90;;;;;;5042325;28;20204;-84
2023/01/03 13:51:47;;;;;;;11.05;2.58;;;24.00;99.90;;;;;;5049187;28;20294;-83
2023/01/03 13:54:35;;;;;;;9.88;2.42;;;23.90;99.90;;;;;;5050821;28;20247;-83
2023/01/03 13:57:28;;;;;;;13.45;2.90;;;23.90;99.90;;;;;;5067446;28;20220;-84
2023/01/03 14:00:01;;;;;;;13.73;2.88;;;23.90;99.90;;;;;;5052124;28;20232;-83
2023/01/03 14:03:13;;;;;;;7.32;1.80;;;23.80;99.90;;;;;;5055294;28;20278;-83
2023/01/03 14:06:15;;;;;;;10.48;2.30;;;23.70;99.90;;;;;;5050423;28;20201;-83
2023/01/03 14:09:18;;;;;;;12.93;2.28;;;23.70;99.90;;;;;;5022267;28;20207;-83
2023/01/03 14:12:05;;;;;;;10.35;2.60;;;23.70;99.90;;;;;;5059285;28;20210;-83
2023/01/03 14:14:39;;;;;;;11.02;2.50;;;23.70;99.90;;;;;;5053950;28;20196;-84
2023/01/03 14:17:18;;;;;;;10.02;2.38;;;23.70;99.90;;;;;;5047431;28;20273;-83
2023/01/03 14:19:53;;;;;;;12.68;2.58;;;23.70;99.90;;;;;;5055145;28;20197;-83
2023/01/03 14:22:26;;;;;;;13.32;2.88;;;23.70;99.90;;;;;;5052596;28;20516;-83
2023/01/03 14:25:01;;;;;;;12.70;2.70;;;23.80;99.90;;;;;;5054000;28;20280;-84
2023/01/03 14:27:38;;;;;;;11.50;2.53;;;23.80;99.90;;;;;;5053767;28;20769;-84
2023/01/03 14:30:22;;;;;;;8.43;1.95;;;23.80;99.90;;;;;;5054598;28;20718;-83
2023/01/03 14:32:53;;;;;;;14.65;2.78;;;23.80;99.90;;;;;;5052105;28;20199;-85
2023/01/03 14:35:38;;;;;;;10.63;2.45;;;23.80;99.90;;;;;;5053855;28;20359;-83
2023/01/03 14:38:23;;;;;;;11.40;2.58;;;23.80;99.90;;;;;;5055660;28;20228;-84
2023/01/03 14:40:56;;;;;;;10.90;2.42;;;23.80;99.90;;;;;;5056151;28;20308;-84
2023/01/03 14:43:29;;;;;;;7.18;2.20;;;23.80;99.90;;;;;;5052779;28;20196;-84
2023/01/03 14:46:02;;;;;;;11.10;2.55;;;23.80;99.90;;;;;;5053943;28;20197;-83
2023/01/03 14:48:33;;;;;;;9.50;2.45;;;23.90;99.90;;;;;;5053069;28;20188;-84
2023/01/03 14:51:05;;;;;;;12.13;2.40;;;23.90;99.90;;;;;;5052931;28;20193;-84
2023/01/03 14:53:40;;;;;;;13.07;2.78;;;23.80;99.90;;;;;;5051744;28;20222;-83
2023/01/03 14:56:14;;;;;;;9.50;2.03;;;23.80;99.90;;;;;;5044258;28;20275;-83
2023/01/03 14:58:48;;;;;;;10.05;2.33;;;23.80;99.90;;;;;;5070489;28;20193;-83
2023/01/03 15:01:19;;;;;;;10.85;2.75;;;23.80;99.90;;;;;;5053139;28;20242;-83
2023/01/03 15:03:51;;;;;;;8.43;1.95;;;23.80;99.90;;;;;;5059200;28;20291;-84
2023/01/03 15:06:26;;;;;;;11.40;2.70;;;23.80;99.90;;;;;;5055161;28;20280;-84
2023/01/03 15:09:00;;;;;;;9.88;2.33;;;23.80;99.90;;;;;;5061291;28;20196;-84
2023/01/03 15:11:54;;;;;;;9.63;1.98;;;23.80;99.90;;;;;;5053536;28;20215;-83
2023/01/03 15:14:27;;;;;;;11.90;1.90;;;23.80;99.90;;;;;;5052409;28;20220;-83
2023/01/03 15:17:08;;;;;;;9.05;2.15;;;23.80;99.90;;;;;;5053311;28;20724;-84
2023/01/03 15:19:41;;;;;;;8.50;2.20;;;23.80;99.90;;;;;;5052453;28;20318;-83